sensor_id;sensor_type;location;lat;lon;timestamp;P1;durP1;ratioP1;P2;durP2;ratioP2
22111;SDS011;11222;50.872;4.312;2022-07-04T00:00:44;7.57;;;3.80;;
22111;SDS011;11222;50.872;4.312;2022-07-04T00:03:10;6.15;;;4.13;;
22111;SDS011;11222;50.872;4.312;2022-07-04T00:05:36;6.93;;;3.65;;
22111;SDS011;11222;50.872;4.312;2022-07-04T00:08:02;7.68;;;3.90;;
22111;SDS011;11222;50.872;4.312;2022-07-04T00:10:28;9.73;;;4.40;;
22111;SDS011;11222;50.872;4.312;2022-07-04T00:12:53;5.85;;;3.88;;
22111;SDS011;11222;50.872;4.312;2022-07-04T00:15:19;10.82;;;4.20;;
22111;SDS011;11222;50.872;4.312;2022-07-04T00:17:45;6.35;;;3.67;;
22111;SDS011;11222;50.872;4.312;2022-07-04T00:20:11;7.95;;;3.90;;
22111;SDS011;11222;50.872;4.312;2022-07-04T00:22:37;5.88;;;4.00;;
22111;SDS011;11222;50.872;4.312;2022-07-04T00:25:03;6.10;;;3.45;;
22111;SDS011;11222;50.872;4.312;2022-07-04T00:27:29;9.18;;;4.15;;
22111;SDS011;11222;50.872;4.312;2022-07-04T00:29:55;6.13;;;3.40;;
22111;SDS011;11222;50.872;4.312;2022-07-04T00:32:20;5.45;;;3.90;;
22111;SDS011;11222;50.872;4.312;2022-07-04T00:34:46;8.35;;;3.88;;
22111;SDS011;11222;50.872;4.312;2022-07-04T00:37:12;6.07;;;3.60;;
22111;SDS011;11222;50.872;4.312;2022-07-04T00:39:38;7.75;;;3.17;;
22111;SDS011;11222;50.872;4.312;2022-07-04T00:42:03;7.30;;;4.18;;
22111;SDS011;11222;50.872;4.312;2022-07-04T00:44:30;4.68;;;3.20;;
22111;SDS011;11222;50.872;4.312;2022-07-04T00:46:56;10.43;;;3.85;;
22111;SDS011;11222;50.872;4.312;2022-07-04T00:49:22;7.30;;;3.50;;
22111;SDS011;11222;50.872;4.312;2022-07-04T00:51:48;9.30;;;4.45;;
22111;SDS011;11222;50.872;4.312;2022-07-04T00:54:15;5.22;;;3.75;;
22111;SDS011;11222;50.872;4.312;2022-07-04T00:56:43;5.07;;;3.30;;
22111;SDS011;11222;50.872;4.312;2022-07-04T00:59:10;8.15;;;4.13;;
22111;SDS011;11222;50.872;4.312;2022-07-04T01:01:35;10.50;;;4.10;;
22111;SDS011;11222;50.872;4.312;2022-07-04T01:04:02;9.32;;;3.53;;
22111;SDS011;11222;50.872;4.312;2022-07-04T01:06:29;6.00;;;3.60;;
22111;SDS011;11222;50.872;4.312;2022-07-04T01:08:56;5.85;;;3.47;;
22111;SDS011;11222;50.872;4.312;2022-07-04T01:11:22;5.05;;;3.78;;
22111;SDS011;11222;50.872;4.312;2022-07-04T01:13:48;6.28;;;3.50;;
22111;SDS011;11222;50.872;4.312;2022-07-04T01:16:14;7.20;;;3.60;;
22111;SDS011;11222;50.872;4.312;2022-07-04T01:18:39;8.30;;;3.78;;
22111;SDS011;11222;50.872;4.312;2022-07-04T01:21:05;5.32;;;3.50;;
22111;SDS011;11222;50.872;4.312;2022-07-04T01:23:31;8.75;;;3.97;;
22111;SDS011;11222;50.872;4.312;2022-07-04T01:26:01;5.30;;;3.70;;
22111;SDS011;11222;50.872;4.312;2022-07-04T01:28:27;8.38;;;3.90;;
22111;SDS011;11222;50.872;4.312;2022-07-04T01:30:53;5.97;;;4.00;;
22111;SDS011;11222;50.872;4.312;2022-07-04T01:33:19;5.32;;;3.67;;
22111;SDS011;11222;50.872;4.312;2022-07-04T01:35:45;5.07;;;3.50;;
22111;SDS011;11222;50.872;4.312;2022-07-04T01:38:12;4.70;;;3.65;;
22111;SDS011;11222;50.872;4.312;2022-07-04T01:40:37;4.57;;;3.80;;
22111;SDS011;11222;50.872;4.312;2022-07-04T01:43:03;5.82;;;3.58;;
22111;SDS011;11222;50.872;4.312;2022-07-04T01:45:29;10.38;;;3.90;;
22111;SDS011;11222;50.872;4.312;2022-07-04T01:47:54;6.20;;;3.63;;
22111;SDS011;11222;50.872;4.312;2022-07-04T01:50:21;8.50;;;4.40;;
22111;SDS011;11222;50.872;4.312;2022-07-04T01:52:47;6.32;;;3.90;;
22111;SDS011;11222;50.872;4.312;2022-07-04T01:55:13;9.52;;;3.38;;
22111;SDS011;11222;50.872;4.312;2022-07-04T01:57:39;7.20;;;3.72;;
22111;SDS011;11222;50.872;4.312;2022-07-04T02:00:09;6.55;;;3.78;;
22111;SDS011;11222;50.872;4.312;2022-07-04T02:02:57;7.10;;;3.53;;
22111;SDS011;11222;50.872;4.312;2022-07-04T02:05:23;7.97;;;3.58;;
22111;SDS011;11222;50.872;4.312;2022-07-04T02:07:48;5.75;;;3.70;;
22111;SDS011;11222;50.872;4.312;2022-07-04T02:10:14;7.40;;;3.50;;
22111;SDS011;11222;50.872;4.312;2022-07-04T02:12:40;5.30;;;3.40;;
22111;SDS011;11222;50.872;4.312;2022-07-04T02:15:24;4.72;;;3.50;;
22111;SDS011;11222;50.872;4.312;2022-07-04T02:17:50;3.65;;;3.33;;
22111;SDS011;11222;50.872;4.312;2022-07-04T02:20:16;5.45;;;3.28;;
22111;SDS011;11222;50.872;4.312;2022-07-04T02:22:42;8.50;;;3.70;;
22111;SDS011;11222;50.872;4.312;2022-07-04T02:25:08;5.63;;;3.83;;
22111;SDS011;11222;50.872;4.312;2022-07-04T02:27:34;6.63;;;3.80;;
22111;SDS011;11222;50.872;4.312;2022-07-04T02:29:59;7.22;;;3.40;;
22111;SDS011;11222;50.872;4.312;2022-07-04T02:32:25;5.47;;;3.70;;
22111;SDS011;11222;50.872;4.312;2022-07-04T02:34:51;6.45;;;3.95;;
22111;SDS011;11222;50.872;4.312;2022-07-04T02:37:16;6.45;;;4.05;;
22111;SDS011;11222;50.872;4.312;2022-07-04T02:39:42;6.22;;;3.95;;
22111;SDS011;11222;50.872;4.312;2022-07-04T02:42:08;4.10;;;3.70;;
22111;SDS011;11222;50.872;4.312;2022-07-04T02:44:34;5.15;;;4.00;;
22111;SDS011;11222;50.872;4.312;2022-07-04T02:47:00;4.35;;;3.47;;
22111;SDS011;11222;50.872;4.312;2022-07-04T02:49:26;9.00;;;4.38;;
22111;SDS011;11222;50.872;4.312;2022-07-04T02:51:52;5.57;;;3.70;;
22111;SDS011;11222;50.872;4.312;2022-07-04T02:54:17;4.88;;;3.67;;
22111;SDS011;11222;50.872;4.312;2022-07-04T02:56:43;7.22;;;3.70;;
22111;SDS011;11222;50.872;4.312;2022-07-04T02:59:09;7.13;;;3.92;;
22111;SDS011;11222;50.872;4.312;2022-07-04T03:01:34;6.53;;;3.60;;
22111;SDS011;11222;50.872;4.312;2022-07-04T03:04:00;5.55;;;3.85;;
22111;SDS011;11222;50.872;4.312;2022-07-04T03:06:27;5.65;;;3.92;;
22111;SDS011;11222;50.872;4.312;2022-07-04T03:08:53;6.38;;;3.60;;
22111;SDS011;11222;50.872;4.312;2022-07-04T03:11:19;7.35;;;3.80;;
22111;SDS011;11222;50.872;4.312;2022-07-04T03:13:44;5.78;;;3.80;;
22111;SDS011;11222;50.872;4.312;2022-07-04T03:16:10;10.95;;;3.70;;
22111;SDS011;11222;50.872;4.312;2022-07-04T03:18:36;8.48;;;4.05;;
22111;SDS011;11222;50.872;4.312;2022-07-04T03:21:02;7.95;;;3.70;;
22111;SDS011;11222;50.872;4.312;2022-07-04T03:23:29;6.25;;;3.72;;
22111;SDS011;11222;50.872;4.312;2022-07-04T03:25:55;6.45;;;3.90;;
22111;SDS011;11222;50.872;4.312;2022-07-04T03:28:21;6.65;;;3.60;;
22111;SDS011;11222;50.872;4.312;2022-07-04T03:30:47;9.73;;;3.88;;
22111;SDS011;11222;50.872;4.312;2022-07-04T03:33:12;5.63;;;3.63;;
22111;SDS011;11222;50.872;4.312;2022-07-04T03:35:38;5.13;;;3.70;;
22111;SDS011;11222;50.872;4.312;2022-07-04T03:38:04;6.30;;;4.13;;
22111;SDS011;11222;50.872;4.312;2022-07-04T03:40:29;7.75;;;4.20;;
22111;SDS011;11222;50.872;4.312;2022-07-04T03:42:56;6.03;;;4.15;;
22111;SDS011;11222;50.872;4.312;2022-07-04T03:45:23;6.93;;;3.80;;
22111;SDS011;11222;50.872;4.312;2022-07-04T03:47:49;6.25;;;3.75;;
22111;SDS011;11222;50.872;4.312;2022-07-04T03:50:16;9.93;;;4.15;;
22111;SDS011;11222;50.872;4.312;2022-07-04T03:52:42;3.88;;;3.50;;
22111;SDS011;11222;50.872;4.312;2022-07-04T03:55:08;4.93;;;3.55;;
22111;SDS011;11222;50.872;4.312;2022-07-04T03:57:34;8.93;;;4.20;;
22111;SDS011;11222;50.872;4.312;2022-07-04T04:00:00;4.70;;;3.67;;
22111;SDS011;11222;50.872;4.312;2022-07-04T04:02:26;8.85;;;4.05;;
22111;SDS011;11222;50.872;4.312;2022-07-04T04:04:51;5.50;;;4.35;;
22111;SDS011;11222;50.872;4.312;2022-07-04T04:07:35;9.02;;;3.90;;
22111;SDS011;11222;50.872;4.312;2022-07-04T04:10:01;13.60;;;4.10;;
22111;SDS011;11222;50.872;4.312;2022-07-04T04:12:27;6.18;;;3.72;;
22111;SDS011;11222;50.872;4.312;2022-07-04T04:14:52;7.95;;;3.75;;
22111;SDS011;11222;50.872;4.312;2022-07-04T04:17:18;5.10;;;3.33;;
22111;SDS011;11222;50.872;4.312;2022-07-04T04:19:45;5.60;;;3.30;;
22111;SDS011;11222;50.872;4.312;2022-07-04T04:22:11;5.88;;;3.30;;
22111;SDS011;11222;50.872;4.312;2022-07-04T04:24:36;8.65;;;3.78;;
22111;SDS011;11222;50.872;4.312;2022-07-04T04:27:02;6.90;;;3.58;;
22111;SDS011;11222;50.872;4.312;2022-07-04T04:29:28;4.43;;;3.33;;
22111;SDS011;11222;50.872;4.312;2022-07-04T04:31:54;6.28;;;3.42;;
22111;SDS011;11222;50.872;4.312;2022-07-04T04:34:20;4.82;;;3.25;;
22111;SDS011;11222;50.872;4.312;2022-07-04T04:36:45;7.35;;;3.50;;
22111;SDS011;11222;50.872;4.312;2022-07-04T04:39:11;5.47;;;3.42;;
22111;SDS011;11222;50.872;4.312;2022-07-04T04:41:38;5.72;;;3.55;;
22111;SDS011;11222;50.872;4.312;2022-07-04T04:44:04;6.85;;;3.20;;
22111;SDS011;11222;50.872;4.312;2022-07-04T04:46:30;5.25;;;3.20;;
22111;SDS011;11222;50.872;4.312;2022-07-04T04:48:56;7.13;;;3.20;;
22111;SDS011;11222;50.872;4.312;2022-07-04T04:51:21;7.53;;;3.40;;
22111;SDS011;11222;50.872;4.312;2022-07-04T04:53:47;5.95;;;3.00;;
22111;SDS011;11222;50.872;4.312;2022-07-04T04:56:13;5.55;;;2.90;;
22111;SDS011;11222;50.872;4.312;2022-07-04T04:58:39;6.38;;;3.47;;
22111;SDS011;11222;50.872;4.312;2022-07-04T05:01:05;5.28;;;3.15;;
22111;SDS011;11222;50.872;4.312;2022-07-04T05:03:31;5.18;;;3.13;;
22111;SDS011;11222;50.872;4.312;2022-07-04T05:05:56;5.65;;;3.20;;
22111;SDS011;11222;50.872;4.312;2022-07-04T05:08:22;5.07;;;3.50;;
22111;SDS011;11222;50.872;4.312;2022-07-04T05:10:52;5.80;;;3.22;;
22111;SDS011;11222;50.872;4.312;2022-07-04T05:13:18;7.90;;;3.30;;
22111;SDS011;11222;50.872;4.312;2022-07-04T05:15:44;8.35;;;3.53;;
22111;SDS011;11222;50.872;4.312;2022-07-04T05:18:11;9.20;;;3.38;;
22111;SDS011;11222;50.872;4.312;2022-07-04T05:20:38;5.85;;;3.22;;
22111;SDS011;11222;50.872;4.312;2022-07-04T05:23:04;8.13;;;3.55;;
22111;SDS011;11222;50.872;4.312;2022-07-04T05:25:31;4.95;;;3.08;;
22111;SDS011;11222;50.872;4.312;2022-07-04T05:27:57;7.25;;;3.25;;
22111;SDS011;11222;50.872;4.312;2022-07-04T05:30:23;7.32;;;3.72;;
22111;SDS011;11222;50.872;4.312;2022-07-04T05:32:48;4.40;;;3.15;;
22111;SDS011;11222;50.872;4.312;2022-07-04T05:35:14;7.28;;;3.30;;
22111;SDS011;11222;50.872;4.312;2022-07-04T05:37:40;8.45;;;3.33;;
22111;SDS011;11222;50.872;4.312;2022-07-04T05:40:06;10.18;;;3.53;;
22111;SDS011;11222;50.872;4.312;2022-07-04T05:42:33;5.35;;;3.47;;
22111;SDS011;11222;50.872;4.312;2022-07-04T05:44:59;7.15;;;3.40;;
22111;SDS011;11222;50.872;4.312;2022-07-04T05:47:25;7.28;;;3.40;;
22111;SDS011;11222;50.872;4.312;2022-07-04T05:49:51;7.20;;;3.53;;
22111;SDS011;11222;50.872;4.312;2022-07-04T05:52:17;6.95;;;3.78;;
22111;SDS011;11222;50.872;4.312;2022-07-04T05:54:43;8.73;;;3.63;;
22111;SDS011;11222;50.872;4.312;2022-07-04T05:57:08;7.38;;;3.78;;
22111;SDS011;11222;50.872;4.312;2022-07-04T05:59:34;8.45;;;4.22;;
22111;SDS011;11222;50.872;4.312;2022-07-04T06:02:00;7.05;;;3.70;;
22111;SDS011;11222;50.872;4.312;2022-07-04T06:04:26;6.30;;;3.78;;
22111;SDS011;11222;50.872;4.312;2022-07-04T06:06:51;8.43;;;4.20;;
22111;SDS011;11222;50.872;4.312;2022-07-04T06:09:17;10.57;;;4.30;;
22111;SDS011;11222;50.872;4.312;2022-07-04T06:11:43;8.23;;;4.30;;
22111;SDS011;11222;50.872;4.312;2022-07-04T06:14:09;12.40;;;4.07;;
22111;SDS011;11222;50.872;4.312;2022-07-04T06:16:35;10.52;;;4.60;;
22111;SDS011;11222;50.872;4.312;2022-07-04T06:19:01;7.90;;;4.00;;
22111;SDS011;11222;50.872;4.312;2022-07-04T06:21:26;9.52;;;3.83;;
22111;SDS011;11222;50.872;4.312;2022-07-04T06:23:53;7.03;;;3.92;;
22111;SDS011;11222;50.872;4.312;2022-07-04T06:26:18;9.70;;;4.18;;
22111;SDS011;11222;50.872;4.312;2022-07-04T06:28:44;8.35;;;4.10;;
22111;SDS011;11222;50.872;4.312;2022-07-04T06:31:10;6.43;;;4.05;;
22111;SDS011;11222;50.872;4.312;2022-07-04T06:33:37;6.28;;;3.88;;
22111;SDS011;11222;50.872;4.312;2022-07-04T06:36:23;10.82;;;3.80;;
22111;SDS011;11222;50.872;4.312;2022-07-04T06:38:49;9.15;;;3.78;;
22111;SDS011;11222;50.872;4.312;2022-07-04T06:41:14;6.78;;;4.22;;
22111;SDS011;11222;50.872;4.312;2022-07-04T06:43:40;5.60;;;3.85;;
22111;SDS011;11222;50.872;4.312;2022-07-04T06:46:06;7.82;;;3.97;;
22111;SDS011;11222;50.872;4.312;2022-07-04T06:48:31;8.73;;;3.60;;
22111;SDS011;11222;50.872;4.312;2022-07-04T06:50:57;9.50;;;3.80;;
22111;SDS011;11222;50.872;4.312;2022-07-04T06:53:23;6.57;;;3.70;;
22111;SDS011;11222;50.872;4.312;2022-07-04T06:55:48;6.38;;;3.53;;
22111;SDS011;11222;50.872;4.312;2022-07-04T06:58:14;7.50;;;3.63;;
22111;SDS011;11222;50.872;4.312;2022-07-04T07:00:40;5.93;;;3.45;;
22111;SDS011;11222;50.872;4.312;2022-07-04T07:03:06;10.40;;;3.75;;
22111;SDS011;11222;50.872;4.312;2022-07-04T07:05:32;7.68;;;3.63;;
22111;SDS011;11222;50.872;4.312;2022-07-04T07:07:59;5.35;;;3.38;;
22111;SDS011;11222;50.872;4.312;2022-07-04T07:10:25;10.02;;;3.63;;
22111;SDS011;11222;50.872;4.312;2022-07-04T07:12:50;8.25;;;3.10;;
22111;SDS011;11222;50.872;4.312;2022-07-04T07:15:16;7.80;;;3.17;;
22111;SDS011;11222;50.872;4.312;2022-07-04T07:17:43;5.25;;;3.42;;
22111;SDS011;11222;50.872;4.312;2022-07-04T07:20:09;9.10;;;3.40;;
22111;SDS011;11222;50.872;4.312;2022-07-04T07:22:35;6.15;;;3.50;;
22111;SDS011;11222;50.872;4.312;2022-07-04T07:25:01;3.20;;;2.75;;
22111;SDS011;11222;50.872;4.312;2022-07-04T07:27:27;5.95;;;3.30;;
22111;SDS011;11222;50.872;4.312;2022-07-04T07:29:53;5.85;;;2.53;;
22111;SDS011;11222;50.872;4.312;2022-07-04T07:32:19;4.88;;;2.60;;
22111;SDS011;11222;50.872;4.312;2022-07-04T07:34:45;6.65;;;2.88;;
22111;SDS011;11222;50.872;4.312;2022-07-04T07:37:11;4.95;;;2.05;;
22111;SDS011;11222;50.872;4.312;2022-07-04T07:39:37;5.03;;;2.33;;
22111;SDS011;11222;50.872;4.312;2022-07-04T07:42:02;3.45;;;2.00;;
22111;SDS011;11222;50.872;4.312;2022-07-04T07:44:28;4.80;;;2.20;;
22111;SDS011;11222;50.872;4.312;2022-07-04T07:46:54;3.83;;;2.30;;
22111;SDS011;11222;50.872;4.312;2022-07-04T07:49:20;7.20;;;2.55;;
22111;SDS011;11222;50.872;4.312;2022-07-04T07:51:45;9.27;;;2.35;;
22111;SDS011;11222;50.872;4.312;2022-07-04T07:54:11;7.20;;;2.42;;
22111;SDS011;11222;50.872;4.312;2022-07-04T07:56:38;4.88;;;2.10;;
22111;SDS011;11222;50.872;4.312;2022-07-04T07:59:04;7.10;;;2.30;;
22111;SDS011;11222;50.872;4.312;2022-07-04T08:01:29;5.65;;;2.60;;
22111;SDS011;11222;50.872;4.312;2022-07-04T08:03:55;7.28;;;2.72;;
22111;SDS011;11222;50.872;4.312;2022-07-04T08:06:40;7.43;;;2.50;;
22111;SDS011;11222;50.872;4.312;2022-07-04T08:09:06;6.47;;;2.80;;
22111;SDS011;11222;50.872;4.312;2022-07-04T08:11:32;12.65;;;2.85;;
22111;SDS011;11222;50.872;4.312;2022-07-04T08:13:58;4.50;;;2.60;;
22111;SDS011;11222;50.872;4.312;2022-07-04T08:16:23;7.78;;;3.00;;
22111;SDS011;11222;50.872;4.312;2022-07-04T08:18:49;9.90;;;2.88;;
22111;SDS011;11222;50.872;4.312;2022-07-04T08:21:15;5.85;;;2.78;;
22111;SDS011;11222;50.872;4.312;2022-07-04T08:23:41;3.90;;;2.33;;
22111;SDS011;11222;50.872;4.312;2022-07-04T08:26:07;6.20;;;2.58;;
22111;SDS011;11222;50.872;4.312;2022-07-04T08:28:32;6.15;;;2.80;;
22111;SDS011;11222;50.872;4.312;2022-07-04T08:30:58;5.57;;;2.50;;
22111;SDS011;11222;50.872;4.312;2022-07-04T08:33:24;6.47;;;4.38;;
22111;SDS011;11222;50.872;4.312;2022-07-04T08:35:50;7.40;;;2.42;;
22111;SDS011;11222;50.872;4.312;2022-07-04T08:38:16;9.60;;;2.55;;
22111;SDS011;11222;50.872;4.312;2022-07-04T08:40:43;7.93;;;2.50;;
22111;SDS011;11222;50.872;4.312;2022-07-04T08:43:12;7.60;;;2.50;;
22111;SDS011;11222;50.872;4.312;2022-07-04T08:45:39;4.90;;;2.30;;
22111;SDS011;11222;50.872;4.312;2022-07-04T08:48:07;3.70;;;2.25;;
22111;SDS011;11222;50.872;4.312;2022-07-04T08:53:09;8.45;;;3.50;;
22111;SDS011;11222;50.872;4.312;2022-07-04T08:55:37;9.23;;;3.63;;
22111;SDS011;11222;50.872;4.312;2022-07-04T08:58:26;6.10;;;2.60;;
22111;SDS011;11222;50.872;4.312;2022-07-04T09:00:59;4.80;;;2.40;;
22111;SDS011;11222;50.872;4.312;2022-07-04T09:03:27;7.20;;;2.42;;
22111;SDS011;11222;50.872;4.312;2022-07-04T09:05:53;5.97;;;3.05;;
22111;SDS011;11222;50.872;4.312;2022-07-04T09:08:20;5.22;;;3.00;;
22111;SDS011;11222;50.872;4.312;2022-07-04T09:10:50;6.13;;;2.70;;
22111;SDS011;11222;50.872;4.312;2022-07-04T09:13:16;5.10;;;2.90;;
22111;SDS011;11222;50.872;4.312;2022-07-04T09:15:43;4.60;;;2.92;;
22111;SDS011;11222;50.872;4.312;2022-07-04T09:18:27;4.63;;;2.53;;
22111;SDS011;11222;50.872;4.312;2022-07-04T09:20:56;7.28;;;2.80;;
22111;SDS011;11222;50.872;4.312;2022-07-04T09:23:27;6.93;;;2.88;;
22111;SDS011;11222;50.872;4.312;2022-07-04T09:26:08;7.15;;;2.53;;
22111;SDS011;11222;50.872;4.312;2022-07-04T09:28:33;4.05;;;2.85;;
22111;SDS011;11222;50.872;4.312;2022-07-04T09:30:59;4.63;;;2.85;;
22111;SDS011;11222;50.872;4.312;2022-07-04T09:36:15;3.65;;;2.78;;
22111;SDS011;11222;50.872;4.312;2022-07-04T09:38:42;5.88;;;2.90;;
22111;SDS011;11222;50.872;4.312;2022-07-04T09:41:09;8.18;;;2.60;;
22111;SDS011;11222;50.872;4.312;2022-07-04T09:44:03;8.18;;;3.03;;
22111;SDS011;11222;50.872;4.312;2022-07-04T09:46:31;5.43;;;3.08;;
22111;SDS011;11222;50.872;4.312;2022-07-04T09:48:58;3.45;;;2.92;;
22111;SDS011;11222;50.872;4.312;2022-07-04T09:54:26;5.43;;;3.22;;
22111;SDS011;11222;50.872;4.312;2022-07-04T09:57:00;5.18;;;3.40;;
22111;SDS011;11222;50.872;4.312;2022-07-04T09:59:28;5.13;;;3.10;;
22111;SDS011;11222;50.872;4.312;2022-07-04T10:07:17;6.55;;;3.60;;
22111;SDS011;11222;50.872;4.312;2022-07-04T10:12:53;4.85;;;3.10;;
22111;SDS011;11222;50.872;4.312;2022-07-04T10:15:20;4.82;;;2.97;;
22111;SDS011;11222;50.872;4.312;2022-07-04T10:17:47;5.30;;;2.80;;
22111;SDS011;11222;50.872;4.312;2022-07-04T10:20:13;3.78;;;2.78;;
22111;SDS011;11222;50.872;4.312;2022-07-04T10:22:39;6.25;;;3.05;;
22111;SDS011;11222;50.872;4.312;2022-07-04T10:25:05;4.47;;;2.90;;
22111;SDS011;11222;50.872;4.312;2022-07-04T10:27:32;6.03;;;3.35;;
22111;SDS011;11222;50.872;4.312;2022-07-04T10:29:59;5.57;;;3.00;;
22111;SDS011;11222;50.872;4.312;2022-07-04T10:32:28;3.97;;;2.92;;
22111;SDS011;11222;50.872;4.312;2022-07-04T10:34:54;7.57;;;2.92;;
22111;SDS011;11222;50.872;4.312;2022-07-04T10:37:20;3.20;;;2.70;;
22111;SDS011;11222;50.872;4.312;2022-07-04T10:39:47;5.53;;;3.20;;
22111;SDS011;11222;50.872;4.312;2022-07-04T10:42:25;7.70;;;3.03;;
22111;SDS011;11222;50.872;4.312;2022-07-04T10:44:54;6.45;;;2.95;;
22111;SDS011;11222;50.872;4.312;2022-07-04T10:47:25;4.53;;;2.50;;
22111;SDS011;11222;50.872;4.312;2022-07-04T10:49:54;6.43;;;2.97;;
22111;SDS011;11222;50.872;4.312;2022-07-04T10:52:20;3.90;;;2.60;;
22111;SDS011;11222;50.872;4.312;2022-07-04T10:54:46;5.85;;;2.92;;
22111;SDS011;11222;50.872;4.312;2022-07-04T10:59:41;5.82;;;3.10;;
22111;SDS011;11222;50.872;4.312;2022-07-04T11:02:35;7.88;;;3.00;;
22111;SDS011;11222;50.872;4.312;2022-07-04T11:05:06;6.28;;;2.88;;
22111;SDS011;11222;50.872;4.312;2022-07-04T11:17:54;3.78;;;2.65;;
22111;SDS011;11222;50.872;4.312;2022-07-04T11:20:20;4.22;;;2.78;;
22111;SDS011;11222;50.872;4.312;2022-07-04T11:22:47;5.93;;;3.00;;
22111;SDS011;11222;50.872;4.312;2022-07-04T11:25:13;5.80;;;3.22;;
22111;SDS011;11222;50.872;4.312;2022-07-04T11:27:40;6.30;;;3.33;;
22111;SDS011;11222;50.872;4.312;2022-07-04T11:30:07;6.50;;;3.50;;
22111;SDS011;11222;50.872;4.312;2022-07-04T11:32:34;4.03;;;3.00;;
22111;SDS011;11222;50.872;4.312;2022-07-04T11:35:02;4.60;;;3.80;;
22111;SDS011;11222;50.872;4.312;2022-07-04T11:37:29;4.32;;;2.80;;
22111;SDS011;11222;50.872;4.312;2022-07-04T11:39:55;4.65;;;3.03;;
22111;SDS011;11222;50.872;4.312;2022-07-04T11:42:40;7.05;;;2.80;;
22111;SDS011;11222;50.872;4.312;2022-07-04T11:45:50;4.55;;;2.97;;
22111;SDS011;11222;50.872;4.312;2022-07-04T11:48:20;3.65;;;2.90;;
22111;SDS011;11222;50.872;4.312;2022-07-04T11:50:50;5.22;;;2.92;;
22111;SDS011;11222;50.872;4.312;2022-07-04T11:53:16;5.13;;;3.00;;
22111;SDS011;11222;50.872;4.312;2022-07-04T11:55:52;3.88;;;3.40;;
22111;SDS011;11222;50.872;4.312;2022-07-04T11:58:18;5.35;;;3.40;;
22111;SDS011;11222;50.872;4.312;2022-07-04T12:00:44;7.00;;;3.92;;
22111;SDS011;11222;50.872;4.312;2022-07-04T12:03:10;5.60;;;3.53;;
22111;SDS011;11222;50.872;4.312;2022-07-04T12:05:36;7.35;;;3.45;;
22111;SDS011;11222;50.872;4.312;2022-07-04T12:08:03;3.88;;;3.00;;
22111;SDS011;11222;50.872;4.312;2022-07-04T12:10:30;4.35;;;2.92;;
22111;SDS011;11222;50.872;4.312;2022-07-04T12:13:06;6.63;;;3.20;;
22111;SDS011;11222;50.872;4.312;2022-07-04T12:15:39;4.22;;;3.03;;
22111;SDS011;11222;50.872;4.312;2022-07-04T12:18:25;3.45;;;3.00;;
22111;SDS011;11222;50.872;4.312;2022-07-04T12:20:54;8.05;;;2.80;;
22111;SDS011;11222;50.872;4.312;2022-07-04T12:23:21;5.07;;;3.17;;
22111;SDS011;11222;50.872;4.312;2022-07-04T12:25:49;3.22;;;2.80;;
22111;SDS011;11222;50.872;4.312;2022-07-04T12:28:17;5.28;;;3.40;;
22111;SDS011;11222;50.872;4.312;2022-07-04T12:30:54;8.20;;;3.20;;
22111;SDS011;11222;50.872;4.312;2022-07-04T12:33:22;5.70;;;2.90;;
22111;SDS011;11222;50.872;4.312;2022-07-04T12:36:01;8.15;;;3.20;;
22111;SDS011;11222;50.872;4.312;2022-07-04T12:40:59;7.30;;;3.03;;
22111;SDS011;11222;50.872;4.312;2022-07-04T12:43:47;3.78;;;3.00;;
22111;SDS011;11222;50.872;4.312;2022-07-04T12:48:55;3.60;;;2.53;;
22111;SDS011;11222;50.872;4.312;2022-07-04T12:51:29;6.20;;;2.60;;
22111;SDS011;11222;50.872;4.312;2022-07-04T12:53:57;5.07;;;2.50;;
22111;SDS011;11222;50.872;4.312;2022-07-04T12:56:27;3.55;;;2.40;;
22111;SDS011;11222;50.872;4.312;2022-07-04T12:58:56;4.57;;;2.78;;
22111;SDS011;11222;50.872;4.312;2022-07-04T13:01:33;3.78;;;2.60;;
22111;SDS011;11222;50.872;4.312;2022-07-04T13:04:00;5.38;;;2.60;;
22111;SDS011;11222;50.872;4.312;2022-07-04T13:06:27;4.95;;;3.25;;
22111;SDS011;11222;50.872;4.312;2022-07-04T13:08:53;3.78;;;2.50;;
22111;SDS011;11222;50.872;4.312;2022-07-04T13:11:19;4.65;;;2.95;;
22111;SDS011;11222;50.872;4.312;2022-07-04T13:14:04;5.70;;;3.15;;
22111;SDS011;11222;50.872;4.312;2022-07-04T13:16:30;4.88;;;2.60;;
22111;SDS011;11222;50.872;4.312;2022-07-04T13:18:56;3.17;;;2.60;;
22111;SDS011;11222;50.872;4.312;2022-07-04T13:21:21;5.53;;;2.50;;
22111;SDS011;11222;50.872;4.312;2022-07-04T13:23:48;6.22;;;2.63;;
22111;SDS011;11222;50.872;4.312;2022-07-04T13:26:14;8.25;;;2.88;;
22111;SDS011;11222;50.872;4.312;2022-07-04T13:28:40;5.25;;;2.72;;
22111;SDS011;11222;50.872;4.312;2022-07-04T13:31:06;3.17;;;2.65;;
22111;SDS011;11222;50.872;4.312;2022-07-04T13:33:32;4.13;;;2.70;;
22111;SDS011;11222;50.872;4.312;2022-07-04T13:35:58;5.85;;;2.72;;
22111;SDS011;11222;50.872;4.312;2022-07-04T13:38:23;4.97;;;2.80;;
22111;SDS011;11222;50.872;4.312;2022-07-04T13:40:50;4.03;;;2.90;;
22111;SDS011;11222;50.872;4.312;2022-07-04T13:43:17;3.53;;;3.00;;
22111;SDS011;11222;50.872;4.312;2022-07-04T13:45:43;7.13;;;2.95;;
22111;SDS011;11222;50.872;4.312;2022-07-04T13:48:12;5.97;;;3.30;;
22111;SDS011;11222;50.872;4.312;2022-07-04T13:50:37;4.45;;;2.85;;
22111;SDS011;11222;50.872;4.312;2022-07-04T13:53:07;5.65;;;3.05;;
22111;SDS011;11222;50.872;4.312;2022-07-04T13:55:34;7.90;;;3.80;;
22111;SDS011;11222;50.872;4.312;2022-07-04T13:58:01;8.05;;;3.58;;
22111;SDS011;11222;50.872;4.312;2022-07-04T14:00:27;4.10;;;2.70;;
22111;SDS011;11222;50.872;4.312;2022-07-04T14:02:53;4.18;;;2.92;;
22111;SDS011;11222;50.872;4.312;2022-07-04T14:05:19;6.93;;;3.10;;
22111;SDS011;11222;50.872;4.312;2022-07-04T14:07:44;5.68;;;3.40;;
22111;SDS011;11222;50.872;4.312;2022-07-04T14:10:10;7.13;;;3.00;;
22111;SDS011;11222;50.872;4.312;2022-07-04T14:12:36;4.07;;;2.90;;
22111;SDS011;11222;50.872;4.312;2022-07-04T14:15:02;4.78;;;3.00;;
22111;SDS011;11222;50.872;4.312;2022-07-04T14:17:28;5.18;;;3.05;;
22111;SDS011;11222;50.872;4.312;2022-07-04T14:19:54;7.00;;;3.75;;
22111;SDS011;11222;50.872;4.312;2022-07-04T14:22:21;4.97;;;3.60;;
22111;SDS011;11222;50.872;4.312;2022-07-04T14:24:46;8.40;;;3.00;;
22111;SDS011;11222;50.872;4.312;2022-07-04T14:27:12;4.72;;;3.20;;
22111;SDS011;11222;50.872;4.312;2022-07-04T14:29:38;4.57;;;3.05;;
22111;SDS011;11222;50.872;4.312;2022-07-04T14:32:04;5.57;;;2.70;;
22111;SDS011;11222;50.872;4.312;2022-07-04T14:34:30;4.75;;;3.63;;
22111;SDS011;11222;50.872;4.312;2022-07-04T14:36:56;4.00;;;3.58;;
22111;SDS011;11222;50.872;4.312;2022-07-04T14:39:22;6.18;;;3.20;;
22111;SDS011;11222;50.872;4.312;2022-07-04T14:41:48;5.05;;;3.22;;
22111;SDS011;11222;50.872;4.312;2022-07-04T14:44:14;6.03;;;3.60;;
22111;SDS011;11222;50.872;4.312;2022-07-04T14:46:40;6.72;;;3.10;;
22111;SDS011;11222;50.872;4.312;2022-07-04T14:49:06;5.13;;;2.95;;
22111;SDS011;11222;50.872;4.312;2022-07-04T14:51:31;7.03;;;3.25;;
22111;SDS011;11222;50.872;4.312;2022-07-04T14:53:57;5.05;;;2.90;;
22111;SDS011;11222;50.872;4.312;2022-07-04T14:56:23;9.20;;;4.97;;
22111;SDS011;11222;50.872;4.312;2022-07-04T14:58:48;3.45;;;2.83;;
22111;SDS011;11222;50.872;4.312;2022-07-04T15:01:14;5.43;;;2.97;;
22111;SDS011;11222;50.872;4.312;2022-07-04T15:03:40;6.20;;;3.15;;
22111;SDS011;11222;50.872;4.312;2022-07-04T15:06:05;5.40;;;3.17;;
22111;SDS011;11222;50.872;4.312;2022-07-04T15:08:31;5.32;;;2.90;;
22111;SDS011;11222;50.872;4.312;2022-07-04T15:10:57;4.82;;;2.65;;
22111;SDS011;11222;50.872;4.312;2022-07-04T15:13:23;4.97;;;2.80;;
22111;SDS011;11222;50.872;4.312;2022-07-04T15:15:48;6.30;;;3.10;;
22111;SDS011;11222;50.872;4.312;2022-07-04T15:18:14;3.15;;;2.63;;
22111;SDS011;11222;50.872;4.312;2022-07-04T15:20:40;5.00;;;2.70;;
22111;SDS011;11222;50.872;4.312;2022-07-04T15:23:24;6.35;;;2.95;;